Česky Dansk Deutsch English Español Suomi Français Magyar Italiano Nederlands norsk Polski Português svenska Türkçe

 

Het Weer

Oran Aerodrome (Argentinië)

10:00, 30 april 2009 (GMT)

NWNNE
WE
SWSSE
Home            
Oran Aerodrome Tartagal Aerodrome Yacuiba Jujuy Aerodrome La Quiaca Observatorio Tarija Rivadavia Salta Aerodrome Villamontes Camiri Nueva Asuncion Mariscal Estigarribia Las Lomitas Tucuman Aerodrome Potosi Sucre Santiago Del Estero Aero. Presidencia Roque Saenz Pena Aerodrome Santa Cruz / El Trompillo Catamarca Aero. Antofagasta Viru-Viru Tinogasta

Om een weerknop op uw website of weblog te plaatsen, copieer onderstaande code en plak die in uw pagina. In het eerste vakje staat HTML-code, in het tweede vakje UBB-code.


Add to Google

Details

Visibility: 5000 m, 5.0 km, 16404 ft, 3.1 miles
Clouds:Ein wenig bewölkt at 600 ft, 183 m
Geschlossene Wolkendecke at 2000 ft, 610 m
Het Weer:moderate rain
Temperature:20°C, 68°F
Dew-point:20°C, 68°F
Atmospheric pressure:1018 hPa, 763.6 mmHg, 30.06 inHg, 1.005 atm
Relative humidity:100.0 %
METAR:SASO 301000Z 00000KT 5000 RA FEW006 OVC020 20/20 Q1018

Snelkoppelingen

Actuele weersinformatie van de hele wereld. Voeg locaties toe met het plus (+) symbool. Deze snelkoppelingen kunnen worden toegevoegd aan Google.

Lid van de Technetium groep

website free tracking
StatCounter NetStat W3C Validator

20-01-2021 03:04:16
astro.technetium.be money.technetium.be phote.technetium.be tafeltennistafel.technetium.be www.ligfiets.net